Time;durP1;ratioP1;P1;durP2;ratioP2;P2;SDS_P1;SDS_P2;PMS_P1;PMS_P2;Temp;Humidity;BMP_temperature;BMP_pressure;BME280_temperature;BME280_humidity;BME280_pressure;Samples;Min_cycle;Max_cycle;Signal;HPM_P1;HPM_P2
2021/08/10 00:02:13;;;;;;;16.35;8.55;;;;;;;16.79;93.92;101532.34;4842115;29;20895;-62
2021/08/10 00:04:40;;;;;;;18.27;8.40;;;;;;;16.69;94.30;101539.66;4836142;29;20053;-62
2021/08/10 00:07:08;;;;;;;21.25;8.93;;;;;;;16.75;94.07;101533.66;4836355;29;20608;-62
2021/08/10 00:09:34;;;;;;;24.02;9.07;;;;;;;16.91;92.88;101533.63;4841766;29;20137;-62
2021/08/10 00:12:01;;;;;;;16.90;8.48;;;;;;;16.77;93.85;101523.72;4835623;29;20085;-61
2021/08/10 00:14:27;;;;;;;19.20;8.25;;;;;;;16.84;93.00;101532.69;4841787;29;20054;-62
2021/08/10 00:16:54;;;;;;;21.75;7.93;;;;;;;16.86;93.54;101522.75;4837362;29;20065;-62
2021/08/10 00:19:20;;;;;;;16.80;7.80;;;;;;;16.71;93.58;101525.22;4836234;29;20050;-62
2021/08/10 00:21:46;;;;;;;19.05;8.95;;;;;;;16.84;93.09;101527.38;4836555;29;20472;-62
2021/08/10 00:24:13;;;;;;;22.58;8.93;;;;;;;16.78;93.34;101526.22;4842279;29;20224;-62
2021/08/10 00:26:40;;;;;;;19.65;8.43;;;;;;;16.50;94.66;101531.06;4841358;29;20586;-62
2021/08/10 00:29:06;;;;;;;23.20;8.88;;;;;;;16.60;95.12;101533.53;4838600;29;20548;-62
2021/08/10 00:31:32;;;;;;;16.80;8.93;;;;;;;16.66;94.31;101534.69;4838373;29;20571;-62
2021/08/10 00:33:59;;;;;;;18.73;8.60;;;;;;;16.68;93.62;101520.28;4830489;29;20050;-62
2021/08/10 00:36:25;;;;;;;20.17;8.57;;;;;;;16.73;93.04;101525.88;4841536;29;20144;-62
2021/08/10 00:38:52;;;;;;;18.17;8.02;;;;;;;16.73;93.15;101523.22;4835591;29;20085;-62
2021/08/10 00:41:18;;;;;;;19.75;8.27;;;;;;;16.80;92.58;101513.63;4841549;29;20240;-62
2021/08/10 00:43:47;;;;;;;16.67;8.27;;;;;;;16.83;92.30;101522.25;4836363;29;20081;-61
2021/08/10 00:46:15;;;;;;;18.73;8.68;;;;;;;16.95;92.12;101529.66;4836680;29;20559;-61
2021/08/10 00:48:42;;;;;;;18.25;8.18;;;;;;;17.00;91.25;101514.06;4838073;29;20085;-61
2021/08/10 00:51:11;;;;;;;23.65;8.60;;;;;;;16.98;91.67;101525.84;4835909;29;20144;-61
2021/08/10 00:53:38;;;;;;;17.85;8.55;;;;;;;16.96;91.29;101530.50;4844021;29;20136;-61
2021/08/10 00:56:07;;;;;;;16.35;7.88;;;;;;;16.91;91.63;101524.88;4838794;29;20136;-63
2021/08/10 00:58:35;;;;;;;16.58;8.73;;;;;;;16.52;94.95;101520.31;4840278;29;20144;-61
2021/08/10 01:01:02;;;;;;;18.00;9.00;;;;;;;16.49;96.38;101523.31;4831715;29;20050;-61
2021/08/10 01:03:29;;;;;;;26.63;8.65;;;;;;;16.19;97.48;101531.78;4842417;29;20049;-61
2021/08/10 01:05:56;;;;;;;22.55;10.07;;;;;;;16.28;97.06;101531.75;4838407;29;20118;-61
2021/08/10 01:08:29;;;;;;;20.35;8.50;;;;;;;16.24;98.60;101525.97;4841290;29;20606;-63
2021/08/10 01:11:13;;;;;;;21.98;8.98;;;;;;;16.19;98.94;101520.34;4840609;29;20057;-62
2021/08/10 01:13:48;;;;;;;24.23;9.00;;;;;;;16.12;99.59;101525.47;4840263;29;20931;-62
2021/08/10 01:16:32;;;;;;;21.55;8.80;;;;;;;16.29;98.08;101520.16;4839424;29;20839;-62
2021/08/10 01:19:36;;;;;;;20.48;9.25;;;;;;;16.55;96.16;101526.09;4843240;29;20064;-62
2021/08/10 01:22:06;;;;;;;25.90;9.32;;;;;;;16.57;95.93;101520.63;4837153;29;20152;-63
2021/08/10 01:24:38;;;;;;;33.17;10.35;;;;;;;16.57;95.74;101531.22;4842044;29;20132;-61
2021/08/10 01:27:18;;;;;;;26.65;9.75;;;;;;;16.54;95.59;101520.97;4839146;29;20477;-62
2021/08/10 01:29:51;;;;;;;21.30;9.85;;;;;;;16.48;96.01;101511.88;4831991;29;20087;-62
2021/08/10 01:32:18;;;;;;;23.63;9.98;;;;;;;16.44;95.67;101515.84;4842933;29;20506;-61
2021/08/10 01:34:47;;;;;;;29.48;10.05;;;;;;;16.52;95.58;101515.81;4835530;29;20045;-62
2021/08/10 01:37:18;;;;;;;22.20;10.52;;;;;;;16.58;94.90;101507.22;4842698;29;20062;-62
2021/08/10 01:39:47;;;;;;;23.52;9.48;;;;;;;16.62;94.50;101510.34;4835557;29;20057;-60
2021/08/10 01:42:16;;;;;;;20.08;9.45;;;;;;;16.58;94.68;101493.13;4835390;29;20139;-62
2021/08/10 01:44:43;;;;;;;20.83;9.10;;;;;;;16.57;94.71;101502.09;4837410;29;20053;-61
2021/08/10 01:47:11;;;;;;;23.45;10.50;;;;;;;16.36;96.11;101500.78;4843955;29;20049;-63
2021/08/10 01:49:39;;;;;;;19.70;9.63;;;;;;;16.24;98.23;101499.50;4844009;29;20144;-63
2021/08/10 01:52:08;;;;;;;;;;;;;;;16.32;97.29;101501.31;4836726;29;20761;-61
2021/08/10 01:54:35;;;;;;;21.92;8.80;;;;;;;16.27;97.28;101503.63;4837124;29;20039;-61
2021/08/10 01:57:01;;;;;;;28.10;10.55;;;;;;;16.41;96.59;101501.13;4831518;29;20464;-61
2021/08/10 01:59:29;;;;;;;30.55;9.23;;;;;;;16.33;96.44;101513.56;4841999;29;21374;-61
2021/08/10 02:01:55;;;;;;;24.50;10.15;;;;;;;16.39;96.88;101516.38;4835460;29;20141;-61
2021/08/10 02:04:23;;;;;;;18.67;8.10;;;;;;;16.55;94.91;101504.91;4841602;29;20812;-62
2021/08/10 02:06:51;;;;;;;16.80;8.80;;;;;;;16.58;94.34;101501.94;4836160;29;20093;-61
2021/08/10 02:09:20;;;;;;;23.73;9.37;;;;;;;16.34;96.17;101510.72;4838708;29;20947;-62
2021/08/10 02:11:48;;;;;;;28.15;9.80;;;;;;;16.31;96.03;101500.50;4840283;29;20218;-61
2021/08/10 02:14:20;;;;;;;22.80;8.35;;;;;;;16.35;95.69;101515.03;4835441;29;20053;-61
2021/08/10 02:16:47;;;;;;;20.15;9.55;;;;;;;16.24;95.78;101511.91;4843803;29;20057;-61
2021/08/10 02:19:13;;;;;;;26.33;9.32;;;;;;;16.14;97.13;101502.31;4835345;29;20958;-62
2021/08/10 02:21:46;;;;;;;22.50;9.80;;;;;;;16.43;96.05;101506.25;4838570;29;20970;-62
2021/08/10 02:24:21;;;;;;;18.13;8.48;;;;;;;16.54;94.51;101500.63;4830193;29;20485;-61
2021/08/10 02:26:59;;;;;;;24.38;10.43;;;;;;;16.64;93.72;101507.53;4843320;29;20137;-61
2021/08/10 02:29:30;;;;;;;21.10;9.43;;;;;;;16.66;93.72;101510.84;4835086;29;20140;-62
2021/08/10 02:31:57;;;;;;;22.38;8.95;;;;;;;16.40;94.75;101502.09;4841789;29;20130;-61
2021/08/10 02:34:24;;;;;;;27.65;9.48;;;;;;;16.66;93.98;101503.75;4831479;29;20144;-61
2021/08/10 02:36:54;;;;;;;34.33;10.60;;;;;;;16.80;92.40;101510.97;4837053;29;20145;-61
2021/08/10 02:39:22;;;;;;;27.45;8.73;;;;;;;16.72;92.73;101515.44;4840978;29;20133;-60
2021/08/10 02:41:51;;;;;;;19.48;9.00;;;;;;;16.66;93.02;101526.72;4836720;29;20062;-59
2021/08/10 02:44:18;;;;;;;25.33;8.43;;;;;;;16.68;93.05;101514.13;4842376;29;20132;-61
2021/08/10 02:46:44;;;;;;;23.98;8.52;;;;;;;16.69;92.29;101502.56;4835299;29;20932;-61
2021/08/10 02:49:11;;;;;;;21.88;9.23;;;;;;;16.59;93.48;101514.16;4839357;29;20538;-61
2021/08/10 02:51:39;;;;;;;25.10;8.55;;;;;;;16.56;93.50;101511.03;4834115;29;20145;-60
2021/08/10 02:54:06;;;;;;;24.92;9.77;;;;;;;16.49;93.93;101513.53;4843725;29;20133;-61
2021/08/10 02:56:41;;;;;;;19.42;8.68;;;;;;;16.58;93.58;101507.22;4837043;29;20085;-62
2021/08/10 02:59:19;;;;;;;23.38;10.63;;;;;;;16.50;93.94;101501.09;4842693;29;21342;-62
2021/08/10 03:01:52;;;;;;;22.30;9.23;;;;;;;16.50;93.75;101504.56;4830462;29;20144;-62
2021/08/10 03:04:22;;;;;;;21.10;8.85;;;;;;;16.54;93.36;101507.72;4836932;29;20062;-62
2021/08/10 03:06:53;;;;;;;27.70;11.05;;;;;;;16.55;93.50;101498.78;4841379;29;20153;-61
2021/08/10 03:09:20;;;;;;;25.65;8.88;;;;;;;16.58;93.74;101503.72;4836094;29;20152;-62
2021/08/10 03:11:50;;;;;;;23.77;8.93;;;;;;;16.33;94.05;101505.63;4841403;29;20134;-62
2021/08/10 03:14:16;;;;;;;25.75;9.45;;;;;;;16.51;93.48;101502.78;4831232;29;20136;-61
2021/08/10 03:16:45;;;;;;;22.98;8.88;;;;;;;16.54;92.66;101505.91;4838156;29;20049;-61
2021/08/10 03:19:13;;;;;;;24.02;8.90;;;;;;;16.52;93.10;101515.00;4835726;29;20144;-61
2021/08/10 03:21:45;;;;;;;25.58;9.70;;;;;;;16.50;92.52;101517.00;4839748;29;20109;-61
2021/08/10 03:24:12;;;;;;;20.92;9.18;;;;;;;16.15;95.28;101508.44;4835152;29;20597;-61
2021/08/10 03:26:41;;;;;;;25.38;9.35;;;;;;;16.13;95.45;101510.41;4840720;29;20073;-61
2021/08/10 03:29:10;;;;;;;24.05;8.73;;;;;;;16.16;95.90;101510.91;4839857;29;20149;-62
2021/08/10 03:31:37;;;;;;;;;;;;;;;16.37;94.23;101510.41;4828503;29;20475;-62
2021/08/10 03:34:04;;;;;;;28.67;10.68;;;;;;;16.41;93.39;101510.91;4839478;29;19942;-62
2021/08/10 03:36:31;;;;;;;20.98;9.65;;;;;;;16.40;93.15;101517.19;4833172;29;20144;-62
2021/08/10 03:38:58;;;;;;;26.40;8.85;;;;;;;16.44;93.00;101512.38;4842377;29;20144;-62
2021/08/10 03:41:26;;;;;;;27.55;9.85;;;;;;;16.38;93.13;101519.16;4831840;29;20180;-61
2021/08/10 03:43:54;;;;;;;31.60;10.82;;;;;;;16.36;93.11;101516.69;4836982;29;20065;-61
2021/08/10 03:46:21;;;;;;;21.15;8.95;;;;;;;16.18;93.53;101516.06;4833067;29;20661;-61
2021/08/10 03:48:49;;;;;;;22.80;8.65;;;;;;;16.07;95.50;101522.50;4840124;29;20169;-61
2021/08/10 03:51:16;;;;;;;26.58;9.40;;;;;;;16.12;95.09;101525.47;4841805;29;20140;-62
2021/08/10 03:53:43;;;;;;;21.65;8.95;;;;;;;16.10;94.64;101524.81;4834222;29;20139;-61
2021/08/10 03:56:11;;;;;;;22.45;9.25;;;;;;;16.18;94.19;101524.81;4836911;29;20054;-61
2021/08/10 03:58:40;;;;;;;27.58;8.82;;;;;;;16.25;93.86;101525.00;4831255;29;20054;-61
2021/08/10 04:01:09;;;;;;;19.30;8.40;;;;;;;16.24;94.20;101525.16;4839496;29;20144;-61
2021/08/10 04:03:36;;;;;;;21.95;8.55;;;;;;;16.32;93.61;101525.97;4834157;29;20154;-61
2021/08/10 04:06:05;;;;;;;28.00;9.25;;;;;;;16.26;93.47;101525.81;4840845;29;20220;-61
2021/08/10 04:08:32;;;;;;;21.85;8.80;;;;;;;16.23;93.54;101516.38;4835136;29;20696;-61
2021/08/10 04:10:59;;;;;;;24.35;9.27;;;;;;;16.22;93.57;101517.38;4835244;29;20195;-61
2021/08/10 04:13:26;;;;;;;22.92;10.00;;;;;;;16.23;93.58;101519.03;4838786;29;20061;-60
2021/08/10 04:15:56;;;;;;;27.48;8.30;;;;;;;16.26;93.08;101517.88;4835298;29;20065;-61
2021/08/10 04:18:24;;;;;;;20.67;8.23;;;;;;;16.19;93.09;101513.25;4840191;29;20117;-60
2021/08/10 04:20:52;;;;;;;19.30;8.07;;;;;;;16.09;93.97;101514.38;4833426;29;20154;-61
2021/08/10 04:23:19;;;;;;;26.33;9.63;;;;;;;16.12;93.74;101512.25;4836844;29;20158;-61
2021/08/10 04:25:46;;;;;;;24.45;9.13;;;;;;;16.08;93.67;101510.94;4829895;29;20169;-61
2021/08/10 04:28:13;;;;;;;21.30;8.32;;;;;;;16.05;93.99;101505.94;4841231;29;20491;-61
2021/08/10 04:30:41;;;;;;;31.55;9.07;;;;;;;16.04;94.34;101512.25;4833681;29;20184;-61
2021/08/10 04:33:09;;;;;;;21.77;7.82;;;;;;;16.10;93.54;101519.53;4840710;29;20064;-61
2021/08/10 04:35:35;;;;;;;27.67;9.77;;;;;;;16.13;93.78;101523.66;4840713;29;20079;-61
2021/08/10 04:38:02;;;;;;;31.60;8.75;;;;;;;16.18;93.14;101527.47;4836204;29;20140;-61
2021/08/10 04:40:29;;;;;;;24.40;9.68;;;;;;;16.16;93.33;101518.03;4842208;29;20134;-61
2021/08/10 04:42:57;;;;;;;20.60;8.73;;;;;;;16.15;93.09;101522.50;4839034;29;20152;-61
2021/08/10 04:45:25;;;;;;;20.70;8.23;;;;;;;16.18;93.38;101524.00;4844460;29;20769;-61
2021/08/10 04:47:54;;;;;;;26.63;8.57;;;;;;;16.18;92.79;101524.81;4835187;29;20137;-61
2021/08/10 04:50:21;;;;;;;20.70;8.73;;;;;;;16.23;92.97;101523.47;4837739;29;20057;-61
2021/08/10 04:52:48;;;;;;;18.63;8.38;;;;;;;16.25;92.14;101524.13;4840043;29;20088;-61
2021/08/10 04:55:15;;;;;;;19.05;7.85;;;;;;;16.17;92.67;101519.69;4843260;29;20058;-61
2021/08/10 04:57:42;;;;;;;22.60;7.68;;;;;;;16.19;92.91;101518.53;4844008;29;20089;-61
2021/08/10 05:00:08;;;;;;;27.23;8.82;;;;;;;16.14;92.52;101530.63;4836553;29;20058;-61
2021/08/10 05:02:37;;;;;;;19.70;7.63;;;;;;;15.88;94.39;101522.84;4839638;29;20074;-61
2021/08/10 05:05:05;;;;;;;19.63;7.78;;;;;;;16.04;93.98;101522.84;4835645;29;20088;-61
2021/08/10 05:07:31;;;;;;;16.65;7.15;;;;;;;16.09;93.58;101531.13;4845757;29;20144;-61
2021/08/10 05:09:59;;;;;;;21.02;7.68;;;;;;;15.80;95.67;101537.69;4840834;29;20140;-61
2021/08/10 05:12:26;;;;;;;23.77;8.30;;;;;;;16.01;94.83;101529.28;4841608;29;20172;-61
2021/08/10 05:14:52;;;;;;;22.77;8.85;;;;;;;16.07;94.51;101529.59;4836444;29;20152;-60
2021/08/10 05:17:19;;;;;;;19.83;8.02;;;;;;;15.78;96.06;101536.22;4837250;29;20611;-61
2021/08/10 05:19:45;;;;;;;21.02;8.55;;;;;;;15.89;96.24;101535.88;4844452;29;20089;-61
2021/08/10 05:22:14;;;;;;;24.27;8.98;;;;;;;15.97;95.31;101537.72;4838035;29;20132;-61
2021/08/10 05:24:40;;;;;;;20.75;7.47;;;;;;;16.05;94.25;101534.25;4842925;29;20164;-61
2021/08/10 05:27:07;;;;;;;19.67;7.55;;;;;;;16.20;93.74;101541.34;4838825;29;20141;-61
2021/08/10 05:29:33;;;;;;;23.92;8.77;;;;;;;16.27;92.83;101540.69;4839001;29;20149;-61
2021/08/10 05:32:00;;;;;;;20.40;7.78;;;;;;;16.35;92.36;101543.34;4834114;29;20246;-61
2021/08/10 05:34:26;;;;;;;20.27;8.02;;;;;;;16.37;91.86;101541.38;4843543;29;20178;-61
2021/08/10 05:36:53;;;;;;;23.35;7.95;;;;;;;16.45;90.83;101554.59;4840568;29;20059;-61
2021/08/10 05:39:19;;;;;;;28.27;9.52;;;;;;;16.45;91.43;101554.59;4840308;29;20132;-61
2021/08/10 05:41:46;;;;;;;23.08;8.10;;;;;;;16.43;92.04;101551.28;4842941;29;20750;-61
2021/08/10 05:44:15;;;;;;;28.48;8.60;;;;;;;16.49;92.13;101557.72;4832130;29;20129;-61
2021/08/10 05:46:41;;;;;;;22.55;8.18;;;;;;;16.50;91.86;101556.72;4841298;29;20148;-61
2021/08/10 05:49:08;;;;;;;24.63;8.90;;;;;;;16.18;93.59;101550.47;4837275;29;20144;-61
2021/08/10 05:51:36;;;;;;;21.40;8.13;;;;;;;15.89;96.16;101556.22;4842729;29;20085;-61
2021/08/10 05:54:02;;;;;;;25.50;8.25;;;;;;;15.91;97.26;101552.41;4836950;29;20055;-61
2021/08/10 05:56:29;;;;;;;26.67;8.15;;;;;;;16.34;94.46;101549.63;4839984;29;20174;-61
2021/08/10 05:58:55;;;;;;;20.70;8.55;;;;;;;15.98;94.90;101549.97;4839006;29;20058;-61
2021/08/10 06:01:22;;;;;;;25.35;8.35;;;;;;;15.86;97.41;101560.03;4836551;29;20110;-61
2021/08/10 06:03:48;;;;;;;21.50;8.52;;;;;;;16.17;96.93;101556.72;4841034;29;20058;-62
2021/08/10 06:06:15;;;;;;;28.05;9.57;;;;;;;16.51;93.97;101561.03;4836271;29;20517;-62
2021/08/10 06:08:41;;;;;;;28.90;8.85;;;;;;;16.62;92.74;101563.31;4845312;29;20136;-62
2021/08/10 06:11:08;;;;;;;24.23;9.18;;;;;;;16.69;91.20;101564.31;4833486;29;20152;-62
2021/08/10 06:13:36;;;;;;;25.70;9.15;;;;;;;16.78;90.64;101571.25;4842435;29;20465;-61
2021/08/10 06:16:03;;;;;;;;;;;;;;;16.82;90.31;101578.88;4836485;29;20138;-61
2021/08/10 06:18:29;;;;;;;26.08;9.48;;;;;;;16.83;90.19;101581.38;4841651;29;20027;-61
2021/08/10 06:20:59;;;;;;;25.23;9.68;;;;;;;16.41;93.94;101577.09;4841131;29;20069;-61
2021/08/10 06:23:25;;;;;;;25.63;9.95;;;;;;;16.56;93.02;101578.09;4832911;29;20059;-61
2021/08/10 06:25:51;;;;;;;22.33;9.93;;;;;;;16.59;91.81;101569.78;4839568;29;20056;-61
2021/08/10 06:28:18;;;;;;;23.10;9.52;;;;;;;16.75;91.49;101582.16;4835285;29;20054;-61
2021/08/10 06:30:44;;;;;;;22.75;9.85;;;;;;;16.88;91.47;101581.69;4841649;29;20085;-61
2021/08/10 06:33:11;;;;;;;22.73;9.52;;;;;;;17.10;89.80;101572.19;4835640;29;20396;-62
2021/08/10 06:35:41;;;;;;;26.75;9.52;;;;;;;17.30;89.00;101575.25;4842627;29;20069;-62
2021/08/10 06:38:07;;;;;;;25.27;9.38;;;;;;;17.32;87.67;101565.28;4831837;29;20604;-61
2021/08/10 06:40:34;;;;;;;26.42;10.60;;;;;;;17.44;86.74;101568.38;4838608;29;20062;-62
2021/08/10 06:43:01;;;;;;;25.40;11.05;;;;;;;17.50;85.87;101580.94;4844200;29;20506;-61
2021/08/10 06:45:27;;;;;;;29.42;11.15;;;;;;;17.57;86.75;101579.25;4838352;29;20108;-61
2021/08/10 06:47:54;;;;;;;27.77;10.57;;;;;;;17.54;85.99;101586.75;4844471;29;20085;-61
2021/08/10 06:50:21;;;;;;;31.05;10.55;;;;;;;17.58;85.77;101575.63;4829481;29;20064;-60
2021/08/10 06:52:47;;;;;;;29.67;10.30;;;;;;;17.63;85.86;101587.53;4838088;29;20557;-61
2021/08/10 06:55:14;;;;;;;28.73;12.00;;;;;;;17.65;84.82;101582.88;4833715;29;20370;-62
2021/08/10 06:57:41;;;;;;;26.77;10.52;;;;;;;17.64;84.96;101590.03;4843095;29;20141;-61
2021/08/10 07:00:08;;;;;;;36.42;10.80;;;;;;;17.54;85.80;101587.59;4836636;29;20764;-61
2021/08/10 07:02:34;;;;;;;27.20;9.48;;;;;;;17.00;89.72;101596.22;4840244;29;20057;-62
2021/08/10 07:05:02;;;;;;;32.35;10.65;;;;;;;16.87;90.41;101597.75;4837900;29;20117;-61
2021/08/10 07:07:28;;;;;;;27.30;10.50;;;;;;;17.15;89.64;101595.50;4830371;29;20184;-61
2021/08/10 07:09:55;;;;;;;31.23;11.07;;;;;;;17.39;86.92;101589.31;4840981;29;20063;-62
2021/08/10 07:12:21;;;;;;;29.15;12.00;;;;;;;17.54;86.81;101598.19;4832625;29;20134;-62
2021/08/10 07:14:48;;;;;;;32.00;12.70;;;;;;;17.53;85.62;101596.53;4842379;29;20823;-62
2021/08/10 07:17:14;;;;;;;34.40;11.25;;;;;;;17.39;87.39;101584.81;4832800;29;20109;-61
2021/08/10 07:19:41;;;;;;;28.85;10.82;;;;;;;17.80;85.69;101589.09;4835880;29;20140;-63
2021/08/10 07:22:07;;;;;;;30.02;12.32;;;;;;;17.34;87.86;101589.00;4834294;29;20053;-61
2021/08/10 07:24:34;;;;;;;33.00;12.30;;;;;;;17.30;87.95;101585.03;4841171;29;20065;-62
2021/08/10 07:27:00;;;;;;;32.30;12.02;;;;;;;17.88;86.25;101577.63;4843317;29;20073;-61
2021/08/10 07:29:27;;;;;;;32.85;13.13;;;;;;;17.96;83.75;101577.59;4835214;29;20152;-61
2021/08/10 07:31:53;;;;;;;31.10;11.20;;;;;;;17.77;85.67;101582.28;4836642;29;20155;-61
2021/08/10 07:34:20;;;;;;;32.45;11.10;;;;;;;18.00;86.54;101583.38;4830541;29;20133;-61
2021/08/10 07:36:47;;;;;;;31.33;11.00;;;;;;;18.17;82.47;101580.41;4842005;29;20156;-61
2021/08/10 07:39:13;;;;;;;33.10;11.18;;;;;;;17.96;84.89;101580.22;4836416;29;20567;-62
2021/08/10 07:41:40;;;;;;;33.97;10.82;;;;;;;17.98;84.98;101594.97;4839677;29;20144;-61
2021/08/10 07:44:06;;;;;;;28.95;10.80;;;;;;;17.73;84.67;101604.06;4841452;29;20148;-61
2021/08/10 07:46:33;;;;;;;33.10;10.20;;;;;;;17.89;84.91;101600.50;4826209;29;20089;-61
2021/08/10 07:49:00;;;;;;;33.30;10.43;;;;;;;18.13;83.30;101588.88;4839919;29;20069;-61
2021/08/10 07:51:26;;;;;;;27.95;10.05;;;;;;;18.03;83.50;101596.25;4834442;29;20085;-61
2021/08/10 07:53:53;;;;;;;29.55;11.10;;;;;;;17.98;84.70;101597.63;4841703;29;20149;-61
2021/08/10 07:56:19;;;;;;;28.05;10.90;;;;;;;18.37;82.78;101596.66;4834619;29;20132;-61
2021/08/10 07:58:48;;;;;;;36.92;13.18;;;;;;;17.92;84.45;101600.16;4837567;29;20054;-61
2021/08/10 08:01:15;;;;;;;32.53;10.98;;;;;;;18.38;82.07;101590.38;4828554;29;20049;-61
2021/08/10 08:03:42;;;;;;;32.05;11.05;;;;;;;18.61;81.78;101589.47;4841551;29;20072;-62
2021/08/10 08:06:09;;;;;;;39.42;11.85;;;;;;;18.64;80.31;101590.94;4841807;29;20541;-61
2021/08/10 08:08:39;;;;;;;32.28;11.77;;;;;;;18.08;83.03;101600.03;4833294;29;20145;-61
2021/08/10 08:11:06;;;;;;;31.42;11.20;;;;;;;18.11;84.11;101599.72;4840889;29;20149;-61
2021/08/10 08:13:32;;;;;;;30.13;11.02;;;;;;;18.02;84.11;101595.44;4831385;29;20136;-61
2021/08/10 08:15:59;;;;;;;26.83;10.32;;;;;;;18.01;84.17;101596.44;4841421;29;20086;-61
2021/08/10 08:18:26;;;;;;;26.77;9.98;;;;;;;17.98;84.53;101584.34;4838681;29;20058;-61
2021/08/10 08:20:52;;;;;;;32.15;12.02;;;;;;;18.04;83.44;101596.09;4843755;29;20070;-60
2021/08/10 08:23:19;;;;;;;28.92;9.43;;;;;;;18.13;84.68;101596.84;4839331;29;20153;-61
2021/08/10 08:25:46;;;;;;;36.47;9.57;;;;;;;18.16;84.85;101599.16;4841242;29;20144;-61
2021/08/10 08:28:13;;;;;;;32.22;10.48;;;;;;;18.23;83.46;101588.66;4844524;29;20061;-61
2021/08/10 08:30:40;;;;;;;30.42;9.85;;;;;;;18.20;82.53;101597.81;4838081;29;20364;-61
2021/08/10 08:33:08;;;;;;;25.42;9.65;;;;;;;18.40;82.87;101592.00;4844408;29;20129;-62
2021/08/10 08:35:35;;;;;;;22.25;9.00;;;;;;;18.34;81.45;101596.19;4837619;29;20085;-61
2021/08/10 08:38:02;;;;;;;25.45;8.90;;;;;;;18.34;80.76;101598.84;4840563;29;20160;-61
2021/08/10 08:40:28;;;;;;;21.02;8.45;;;;;;;18.53;81.17;101597.53;4832581;29;20093;-59
2021/08/10 08:42:55;;;;;;;23.20;7.80;;;;;;;18.71;81.14;101599.84;4844045;29;20057;-61
2021/08/10 08:45:21;;;;;;;29.15;8.50;;;;;;;18.68;80.00;101601.06;4837487;29;20311;-61
2021/08/10 08:47:53;;;;;;;25.25;9.07;;;;;;;18.84;77.29;101594.78;4845213;29;20484;-61
2021/08/10 08:50:22;;;;;;;18.13;7.80;;;;;;;19.33;76.35;101594.22;4844076;29;20152;-61
2021/08/10 08:52:54;;;;;;;19.38;6.40;;;;;;;19.83;75.45;101591.72;4831308;29;20114;-61
2021/08/10 08:55:21;;;;;;;17.05;6.82;;;;;;;19.91;71.81;101594.25;4841007;29;20096;-62
2021/08/10 08:57:48;;;;;;;17.95;6.68;;;;;;;19.93;71.40;101588.75;4837900;29;20088;-62
2021/08/10 09:00:17;;;;;;;17.40;6.43;;;;;;;19.85;70.77;101594.22;4843705;29;20060;-62
2021/08/10 09:02:44;;;;;;;18.23;7.07;;;;;;;19.87;71.80;101592.19;4836689;29;20183;-61
2021/08/10 09:05:12;;;;;;;16.77;7.07;;;;;;;19.87;71.37;101586.84;4841134;29;20422;-60
2021/08/10 09:07:40;;;;;;;18.20;6.95;;;;;;;20.21;71.10;101595.97;4833885;29;20360;-61
2021/08/10 09:10:08;;;;;;;19.17;7.05;;;;;;;20.05;70.96;101602.38;4844717;29;20144;-61
2021/08/10 09:12:50;;;;;;;15.98;7.05;;;;;;;19.83;72.15;101599.72;4843970;29;20142;-62
2021/08/10 09:15:46;;;;;;;20.92;8.27;;;;;;;19.93;72.04;101602.06;4839557;29;20053;-61
2021/08/10 09:18:21;;;;;;;24.63;9.30;;;;;;;19.59;71.04;101594.72;4842428;29;20057;-61
2021/08/10 09:21:08;;;;;;;23.60;9.00;;;;;;;19.51;72.56;101599.13;4830369;29;20414;-62
2021/08/10 09:23:45;;;;;;;25.90;9.75;;;;;;;19.75;72.10;101594.50;4842126;29;20470;-62
2021/08/10 09:26:15;;;;;;;23.77;10.65;;;;;;;19.62;72.18;101602.31;4835907;29;20068;-61
2021/08/10 09:28:43;;;;;;;23.08;10.18;;;;;;;19.86;72.09;101596.69;4843860;29;20125;-61
2021/08/10 09:31:32;;;;;;;22.40;9.95;;;;;;;19.68;73.27;101596.25;4837566;29;20140;-61
2021/08/10 09:34:05;;;;;;;23.98;11.32;;;;;;;19.64;73.63;101593.16;4837532;29;20657;-62
2021/08/10 09:36:33;;;;;;;25.85;11.25;;;;;;;19.85;72.72;101599.53;4836495;29;20589;-61
2021/08/10 09:38:59;;;;;;;21.00;9.80;;;;;;;19.97;72.61;101589.22;4844086;29;20511;-61
2021/08/10 09:41:27;;;;;;;19.02;9.70;;;;;;;19.91;72.84;101585.47;4837071;29;20144;-61
2021/08/10 09:44:14;;;;;;;17.97;8.97;;;;;;;20.06;72.93;101593.41;4843813;29;20149;-61
2021/08/10 09:46:46;;;;;;;19.67;8.48;;;;;;;20.07;72.89;101587.91;4832929;29;20905;-61
2021/08/10 09:49:13;;;;;;;17.60;8.32;;;;;;;20.34;71.27;101577.44;4839289;29;20114;-62
2021/08/10 09:51:46;;;;;;;21.98;8.43;;;;;;;20.35;71.54;101577.25;4836253;29;20061;-63
2021/08/10 09:54:14;;;;;;;19.02;8.05;;;;;;;20.39;70.98;101587.56;4842685;29;20104;-61
2021/08/10 09:56:49;;;;;;;17.08;7.60;;;;;;;20.66;69.84;101583.25;4842515;29;20152;-61
2021/08/10 09:59:21;;;;;;;20.77;7.20;;;;;;;20.94;68.33;101585.91;4833000;29;20144;-62
2021/08/10 10:01:55;;;;;;;13.48;7.40;;;;;;;21.02;66.69;101577.72;4837810;29;20161;-61
2021/08/10 10:04:26;;;;;;;20.40;7.85;;;;;;;20.37;68.37;101568.28;4836090;29;20077;-61
2021/08/10 10:06:57;;;;;;;18.95;7.35;;;;;;;20.39;68.66;101575.03;4843213;29;20085;-61
2021/08/10 10:09:25;;;;;;;19.30;6.78;;;;;;;20.74;68.24;101580.47;4837023;29;20061;-61
2021/08/10 10:11:54;;;;;;;18.50;7.00;;;;;;;20.77;67.83;101577.38;4843024;29;20502;-61
2021/08/10 10:14:23;;;;;;;16.67;7.65;;;;;;;20.89;68.14;101577.66;4829189;29;20084;-61
2021/08/10 10:16:51;;;;;;;12.95;7.10;;;;;;;20.81;67.92;101575.16;4839426;29;20061;-61
2021/08/10 10:19:20;;;;;;;14.40;6.80;;;;;;;20.87;68.33;101580.50;4835475;29;20077;-61
2021/08/10 10:21:57;;;;;;;14.88;6.00;;;;;;;20.78;69.63;101579.03;4842295;29;20168;-62
2021/08/10 10:24:26;;;;;;;17.55;6.68;;;;;;;21.10;68.99;101582.91;4840527;29;20060;-61
2021/08/10 10:27:02;;;;;;;16.27;6.47;;;;;;;21.51;67.46;101576.72;4832168;29;20060;-61
2021/08/10 10:29:30;;;;;;;19.55;6.07;;;;;;;21.37;68.13;101583.03;4838032;29;20156;-62
2021/08/10 10:31:57;;;;;;;16.25;7.10;;;;;;;21.09;68.67;101578.59;4835317;29;20141;-61
2021/08/10 10:34:24;;;;;;;18.23;7.00;;;;;;;20.85;69.19;101574.56;4841064;29;20089;-61
2021/08/10 10:36:51;;;;;;;18.00;6.57;;;;;;;20.67;69.67;101568.91;4836257;29;20463;-62
2021/08/10 10:39:27;;;;;;;19.92;6.95;;;;;;;20.49;70.29;101569.38;4842545;29;20089;-62
2021/08/10 10:41:56;;;;;;;14.10;8.10;;;;;;;20.34;70.42;101559.63;4828593;29;20091;-62
2021/08/10 10:44:51;;;;;;;18.02;7.45;;;;;;;20.24;71.36;101566.31;4838940;29;20160;-62
2021/08/10 10:47:23;;;;;;;16.75;7.22;;;;;;;20.28;70.26;101560.38;4836809;29;20469;-62
2021/08/10 10:49:56;;;;;;;17.98;7.95;;;;;;;20.42;70.50;101556.00;4842321;29;20144;-62
2021/08/10 10:52:27;;;;;;;16.98;6.97;;;;;;;20.65;68.88;101546.97;4840880;29;20084;-61
2021/08/10 10:54:55;;;;;;;19.80;8.27;;;;;;;20.89;67.81;101559.00;4832552;29;20089;-62
2021/08/10 10:57:43;;;;;;;19.42;8.40;;;;;;;21.39;65.19;101551.63;4837612;29;21015;-62
2021/08/10 11:00:14;;;;;;;20.25;8.57;;;;;;;21.68;64.09;101553.19;4834491;29;20144;-62
2021/08/10 11:02:41;;;;;;;19.77;8.30;;;;;;;22.11;63.03;101557.34;4840505;29;20467;-62
2021/08/10 11:05:17;;;;;;;19.13;7.72;;;;;;;21.89;62.04;101551.34;4836007;29;20518;-62
2021/08/10 11:07:53;;;;;;;19.38;7.75;;;;;;;22.43;60.86;101562.91;4838559;29;20786;-62
2021/08/10 11:10:44;;;;;;;15.65;7.13;;;;;;;22.34;61.73;101554.25;4830542;29;20053;-62
2021/08/10 11:13:16;;;;;;;13.60;6.70;;;;;;;22.36;59.52;101557.56;4847436;29;20117;-62
2021/08/10 11:15:46;;;;;;;21.35;9.07;;;;;;;21.98;59.93;101566.16;4834869;29;20190;-62
2021/08/10 11:18:12;;;;;;;19.42;7.80;;;;;;;21.65;61.19;101555.41;4842392;29;20118;-62
2021/08/10 11:20:42;;;;;;;19.92;7.57;;;;;;;21.70;60.36;101544.97;4833341;29;20148;-62
2021/08/10 11:23:26;;;;;;;18.60;7.68;;;;;;;21.89;60.70;101552.19;4841491;29;20077;-62
2021/08/10 11:26:14;;;;;;;21.13;7.20;;;;;;;21.84;59.10;101553.81;4838882;29;20719;-60